Terminal Aerodrome Forecast
Issued by NWS

Home | Current Version | Previous Version | Text Only | Print | Product List | Glossary On
Versions: 1 2 3 4 5 6 7 8 9 10 11 12 13 14 15 16 17 18 19 20 21 22 23 24 25 26 27 28 29 30 31
000
FTUS44 KEWX 300806 AAC
TAFSSF
TAF AMD
KSSF 300806Z 3008/0106 16010KT P6SM OVC009
     FM301400 17008KT P6SM BKN012 OVC030
     FM301600 17008KT P6SM VCSH BKN028
     FM301800 13009KT P6SM VCSH SCT040 SCT250
     FM010100 13008KT P6SM FEW050 SCT250=

USA.gov is the U.S. government's official web portal to all federal, state and local government web resources and services.